sensor_id;sensor_type;location;lat;lon;timestamp;P1;durP1;ratioP1;P2;durP2;ratioP2
60665;SDS011;59128;44.642;21.188;2023-05-20T00:00:53;40.17;;;24.85;;
60665;SDS011;59128;44.642;21.188;2023-05-20T00:03:19;32.45;;;22.05;;
60665;SDS011;59128;44.642;21.188;2023-05-20T00:05:45;33.88;;;23.08;;
60665;SDS011;59128;44.642;21.188;2023-05-20T00:08:12;29.58;;;20.05;;
60665;SDS011;59128;44.642;21.188;2023-05-20T00:10:38;24.65;;;16.38;;
60665;SDS011;59128;44.642;21.188;2023-05-20T00:13:05;25.40;;;16.48;;
60665;SDS011;59128;44.642;21.188;2023-05-20T00:15:31;34.33;;;21.58;;
60665;SDS011;59128;44.642;21.188;2023-05-20T00:17:59;25.02;;;17.63;;
60665;SDS011;59128;44.642;21.188;2023-05-20T00:20:25;22.80;;;17.02;;
60665;SDS011;59128;44.642;21.188;2023-05-20T00:22:51;23.38;;;16.90;;
60665;SDS011;59128;44.642;21.188;2023-05-20T00:25:17;27.27;;;17.70;;
60665;SDS011;59128;44.642;21.188;2023-05-20T00:27:43;27.77;;;18.95;;
60665;SDS011;59128;44.642;21.188;2023-05-20T00:30:11;23.98;;;16.48;;
60665;SDS011;59128;44.642;21.188;2023-05-20T00:32:37;23.75;;;16.73;;
60665;SDS011;59128;44.642;21.188;2023-05-20T00:35:03;26.35;;;17.42;;
60665;SDS011;59128;44.642;21.188;2023-05-20T00:37:29;29.08;;;19.58;;
60665;SDS011;59128;44.642;21.188;2023-05-20T00:39:56;32.80;;;22.05;;
60665;SDS011;59128;44.642;21.188;2023-05-20T00:42:26;41.20;;;26.60;;
60665;SDS011;59128;44.642;21.188;2023-05-20T00:44:52;36.97;;;25.60;;
60665;SDS011;59128;44.642;21.188;2023-05-20T00:47:19;36.10;;;24.40;;
60665;SDS011;59128;44.642;21.188;2023-05-20T00:49:46;32.67;;;23.20;;
60665;SDS011;59128;44.642;21.188;2023-05-20T00:52:12;39.03;;;25.83;;
60665;SDS011;59128;44.642;21.188;2023-05-20T00:54:39;45.88;;;27.45;;
60665;SDS011;59128;44.642;21.188;2023-05-20T00:57:06;34.97;;;24.10;;
60665;SDS011;59128;44.642;21.188;2023-05-20T00:59:33;36.47;;;26.20;;
60665;SDS011;59128;44.642;21.188;2023-05-20T01:02:00;29.40;;;22.65;;
60665;SDS011;59128;44.642;21.188;2023-05-20T01:04:26;30.63;;;21.20;;
60665;SDS011;59128;44.642;21.188;2023-05-20T01:06:52;32.85;;;23.02;;
60665;SDS011;59128;44.642;21.188;2023-05-20T01:09:19;37.42;;;25.83;;
60665;SDS011;59128;44.642;21.188;2023-05-20T01:12:30;35.75;;;27.60;;
60665;SDS011;59128;44.642;21.188;2023-05-20T01:14:36;39.15;;;27.35;;
60665;SDS011;59128;44.642;21.188;2023-05-20T01:17:04;35.70;;;24.83;;
60665;SDS011;59128;44.642;21.188;2023-05-20T01:19:37;35.42;;;23.35;;
60665;SDS011;59128;44.642;21.188;2023-05-20T01:22:08;37.28;;;24.52;;
60665;SDS011;59128;44.642;21.188;2023-05-20T01:24:37;37.15;;;27.08;;
60665;SDS011;59128;44.642;21.188;2023-05-20T01:27:03;44.40;;;30.98;;
60665;SDS011;59128;44.642;21.188;2023-05-20T01:29:34;47.70;;;34.38;;
60665;SDS011;59128;44.642;21.188;2023-05-20T01:32:00;53.50;;;36.22;;
60665;SDS011;59128;44.642;21.188;2023-05-20T01:34:29;52.53;;;39.38;;
60665;SDS011;59128;44.642;21.188;2023-05-20T01:36:56;58.05;;;43.33;;
60665;SDS011;59128;44.642;21.188;2023-05-20T01:39:22;54.63;;;41.50;;
60665;SDS011;59128;44.642;21.188;2023-05-20T01:41:49;52.90;;;42.88;;
60665;SDS011;59128;44.642;21.188;2023-05-20T01:44:16;58.10;;;43.83;;
60665;SDS011;59128;44.642;21.188;2023-05-20T01:46:47;62.85;;;47.15;;
60665;SDS011;59128;44.642;21.188;2023-05-20T01:49:13;77.10;;;54.27;;
60665;SDS011;59128;44.642;21.188;2023-05-20T01:51:39;63.72;;;54.03;;
60665;SDS011;59128;44.642;21.188;2023-05-20T01:54:05;65.43;;;58.63;;
60665;SDS011;59128;44.642;21.188;2023-05-20T01:56:31;70.63;;;63.38;;
60665;SDS011;59128;44.642;21.188;2023-05-20T01:58:57;64.57;;;57.78;;
60665;SDS011;59128;44.642;21.188;2023-05-20T02:01:23;63.45;;;56.65;;
60665;SDS011;59128;44.642;21.188;2023-05-20T02:03:49;71.40;;;63.88;;
60665;SDS011;59128;44.642;21.188;2023-05-20T02:06:15;64.68;;;57.88;;
60665;SDS011;59128;44.642;21.188;2023-05-20T02:08:41;70.57;;;63.45;;
60665;SDS011;59128;44.642;21.188;2023-05-20T02:11:08;115.53;;;104.90;;
60665;SDS011;59128;44.642;21.188;2023-05-20T02:13:34;118.63;;;108.45;;
60665;SDS011;59128;44.642;21.188;2023-05-20T02:16:00;107.22;;;97.82;;
60665;SDS011;59128;44.642;21.188;2023-05-20T02:18:26;119.65;;;109.70;;
60665;SDS011;59128;44.642;21.188;2023-05-20T02:20:52;219.15;;;205.20;;
60665;SDS011;59128;44.642;21.188;2023-05-20T02:23:18;258.85;;;242.75;;
60665;SDS011;59128;44.642;21.188;2023-05-20T02:25:44;285.20;;;266.80;;
60665;SDS011;59128;44.642;21.188;2023-05-20T02:28:10;320.75;;;299.08;;
60665;SDS011;59128;44.642;21.188;2023-05-20T02:30:37;328.65;;;307.38;;
60665;SDS011;59128;44.642;21.188;2023-05-20T02:33:03;270.98;;;254.15;;
60665;SDS011;59128;44.642;21.188;2023-05-20T02:35:29;346.73;;;324.47;;
60665;SDS011;59128;44.642;21.188;2023-05-20T02:37:55;348.17;;;325.10;;
60665;SDS011;59128;44.642;21.188;2023-05-20T02:40:21;362.15;;;337.95;;
60665;SDS011;59128;44.642;21.188;2023-05-20T02:42:47;353.55;;;329.52;;
60665;SDS011;59128;44.642;21.188;2023-05-20T02:45:13;351.27;;;326.75;;
60665;SDS011;59128;44.642;21.188;2023-05-20T02:47:39;407.67;;;379.13;;
60665;SDS011;59128;44.642;21.188;2023-05-20T02:50:06;398.52;;;372.77;;
60665;SDS011;59128;44.642;21.188;2023-05-20T02:52:32;347.48;;;325.23;;
60665;SDS011;59128;44.642;21.188;2023-05-20T02:54:59;309.10;;;289.08;;
60665;SDS011;59128;44.642;21.188;2023-05-20T02:57:25;144.40;;;133.83;;
60665;SDS011;59128;44.642;21.188;2023-05-20T02:59:53;140.23;;;129.73;;
60665;SDS011;59128;44.642;21.188;2023-05-20T03:02:20;178.80;;;166.98;;
60665;SDS011;59128;44.642;21.188;2023-05-20T03:04:47;166.88;;;155.25;;
60665;SDS011;59128;44.642;21.188;2023-05-20T03:07:14;154.17;;;143.03;;
60665;SDS011;59128;44.642;21.188;2023-05-20T03:09:43;147.50;;;136.85;;
60665;SDS011;59128;44.642;21.188;2023-05-20T03:12:09;175.95;;;164.20;;
60665;SDS011;59128;44.642;21.188;2023-05-20T03:14:35;165.00;;;153.43;;
60665;SDS011;59128;44.642;21.188;2023-05-20T03:17:01;180.32;;;168.43;;
60665;SDS011;59128;44.642;21.188;2023-05-20T03:19:28;146.00;;;135.25;;
60665;SDS011;59128;44.642;21.188;2023-05-20T03:21:54;160.93;;;149.73;;
60665;SDS011;59128;44.642;21.188;2023-05-20T03:24:20;192.68;;;180.25;;
60665;SDS011;59128;44.642;21.188;2023-05-20T03:26:47;131.60;;;121.72;;
60665;SDS011;59128;44.642;21.188;2023-05-20T03:29:13;197.85;;;184.60;;
60665;SDS011;59128;44.642;21.188;2023-05-20T03:31:39;210.77;;;197.00;;
60665;SDS011;59128;44.642;21.188;2023-05-20T03:34:06;182.55;;;170.38;;
60665;SDS011;59128;44.642;21.188;2023-05-20T03:36:32;145.82;;;135.90;;
60665;SDS011;59128;44.642;21.188;2023-05-20T03:38:58;133.63;;;124.50;;
60665;SDS011;59128;44.642;21.188;2023-05-20T03:41:25;140.63;;;131.00;;
60665;SDS011;59128;44.642;21.188;2023-05-20T03:43:51;141.38;;;131.80;;
60665;SDS011;59128;44.642;21.188;2023-05-20T03:46:17;135.38;;;126.28;;
60665;SDS011;59128;44.642;21.188;2023-05-20T03:48:43;180.55;;;168.35;;
60665;SDS011;59128;44.642;21.188;2023-05-20T03:51:09;218.88;;;205.13;;
60665;SDS011;59128;44.642;21.188;2023-05-20T03:53:35;130.20;;;120.18;;
60665;SDS011;59128;44.642;21.188;2023-05-20T03:56:01;151.68;;;141.13;;
60665;SDS011;59128;44.642;21.188;2023-05-20T03:58:27;236.60;;;221.23;;
60665;SDS011;59128;44.642;21.188;2023-05-20T04:00:55;223.95;;;209.20;;
60665;SDS011;59128;44.642;21.188;2023-05-20T04:03:22;174.25;;;161.90;;
60665;SDS011;59128;44.642;21.188;2023-05-20T04:05:48;157.32;;;146.07;;
60665;SDS011;59128;44.642;21.188;2023-05-20T04:08:14;196.48;;;183.43;;
60665;SDS011;59128;44.642;21.188;2023-05-20T04:10:42;180.80;;;168.60;;
60665;SDS011;59128;44.642;21.188;2023-05-20T04:13:09;154.48;;;143.45;;
60665;SDS011;59128;44.642;21.188;2023-05-20T04:15:35;167.15;;;154.32;;
60665;SDS011;59128;44.642;21.188;2023-05-20T04:18:02;192.82;;;179.05;;
60665;SDS011;59128;44.642;21.188;2023-05-20T04:20:29;204.38;;;190.52;;
60665;SDS011;59128;44.642;21.188;2023-05-20T04:22:55;184.13;;;172.13;;
60665;SDS011;59128;44.642;21.188;2023-05-20T04:25:21;248.20;;;232.57;;
60665;SDS011;59128;44.642;21.188;2023-05-20T04:27:48;197.10;;;184.55;;
60665;SDS011;59128;44.642;21.188;2023-05-20T04:30:14;155.70;;;145.03;;
60665;SDS011;59128;44.642;21.188;2023-05-20T04:32:44;177.43;;;165.23;;
60665;SDS011;59128;44.642;21.188;2023-05-20T04:35:12;199.68;;;186.05;;
60665;SDS011;59128;44.642;21.188;2023-05-20T04:37:38;187.77;;;174.30;;
60665;SDS011;59128;44.642;21.188;2023-05-20T04:40:06;175.27;;;162.18;;
60665;SDS011;59128;44.642;21.188;2023-05-20T04:42:33;200.57;;;183.70;;
60665;SDS011;59128;44.642;21.188;2023-05-20T04:44:59;184.70;;;170.02;;
60665;SDS011;59128;44.642;21.188;2023-05-20T04:47:29;187.98;;;173.38;;
60665;SDS011;59128;44.642;21.188;2023-05-20T04:49:55;254.77;;;235.40;;
60665;SDS011;59128;44.642;21.188;2023-05-20T04:52:24;308.00;;;285.42;;
60665;SDS011;59128;44.642;21.188;2023-05-20T04:54:51;271.80;;;252.07;;
60665;SDS011;59128;44.642;21.188;2023-05-20T04:57:17;347.93;;;323.73;;
60665;SDS011;59128;44.642;21.188;2023-05-20T04:59:45;345.45;;;319.80;;
60665;SDS011;59128;44.642;21.188;2023-05-20T05:02:11;356.90;;;329.73;;
60665;SDS011;59128;44.642;21.188;2023-05-20T05:04:41;371.60;;;345.35;;
60665;SDS011;59128;44.642;21.188;2023-05-20T05:07:07;228.75;;;211.50;;
60665;SDS011;59128;44.642;21.188;2023-05-20T05:09:33;255.80;;;237.65;;
60665;SDS011;59128;44.642;21.188;2023-05-20T05:11:59;257.60;;;239.18;;
60665;SDS011;59128;44.642;21.188;2023-05-20T05:14:26;227.57;;;211.20;;
60665;SDS011;59128;44.642;21.188;2023-05-20T05:16:52;264.02;;;244.07;;
60665;SDS011;59128;44.642;21.188;2023-05-20T05:19:18;227.25;;;209.07;;
60665;SDS011;59128;44.642;21.188;2023-05-20T05:21:44;250.05;;;230.65;;
60665;SDS011;59128;44.642;21.188;2023-05-20T05:24:12;275.58;;;253.38;;
60665;SDS011;59128;44.642;21.188;2023-05-20T05:26:38;303.83;;;279.00;;
60665;SDS011;59128;44.642;21.188;2023-05-20T05:29:04;227.45;;;210.48;;
60665;SDS011;59128;44.642;21.188;2023-05-20T05:31:30;242.68;;;224.75;;
60665;SDS011;59128;44.642;21.188;2023-05-20T05:33:56;207.40;;;191.95;;
60665;SDS011;59128;44.642;21.188;2023-05-20T05:36:23;155.90;;;144.00;;
60665;SDS011;59128;44.642;21.188;2023-05-20T05:38:50;169.93;;;157.50;;
60665;SDS011;59128;44.642;21.188;2023-05-20T05:41:16;208.48;;;193.68;;
60665;SDS011;59128;44.642;21.188;2023-05-20T05:43:42;189.32;;;175.65;;
60665;SDS011;59128;44.642;21.188;2023-05-20T05:46:08;203.23;;;188.53;;
60665;SDS011;59128;44.642;21.188;2023-05-20T05:48:35;258.17;;;239.25;;
60665;SDS011;59128;44.642;21.188;2023-05-20T05:51:01;200.00;;;185.48;;
60665;SDS011;59128;44.642;21.188;2023-05-20T05:53:27;180.02;;;166.18;;
60665;SDS011;59128;44.642;21.188;2023-05-20T05:55:53;223.82;;;206.95;;
60665;SDS011;59128;44.642;21.188;2023-05-20T05:58:19;278.23;;;257.52;;
60665;SDS011;59128;44.642;21.188;2023-05-20T06:00:45;1275.32;;;919.28;;
60665;SDS011;59128;44.642;21.188;2023-05-20T06:03:11;1441.28;;;998.08;;
60665;SDS011;59128;44.642;21.188;2023-05-20T06:05:37;1377.30;;;965.83;;
60665;SDS011;59128;44.642;21.188;2023-05-20T06:08:03;1059.63;;;903.25;;
60665;SDS011;59128;44.642;21.188;2023-05-20T06:10:29;1233.30;;;896.72;;
60665;SDS011;59128;44.642;21.188;2023-05-20T06:12:56;967.15;;;794.85;;
60665;SDS011;59128;44.642;21.188;2023-05-20T06:15:22;1315.75;;;900.35;;
60665;SDS011;59128;44.642;21.188;2023-05-20T06:17:48;1500.88;;;907.47;;
60665;SDS011;59128;44.642;21.188;2023-05-20T06:20:14;1197.38;;;823.33;;
60665;SDS011;59128;44.642;21.188;2023-05-20T06:22:40;1176.50;;;871.50;;
60665;SDS011;59128;44.642;21.188;2023-05-20T06:25:06;1264.22;;;889.13;;
60665;SDS011;59128;44.642;21.188;2023-05-20T06:27:33;1356.85;;;883.78;;
60665;SDS011;59128;44.642;21.188;2023-05-20T06:29:59;1133.10;;;855.80;;
60665;SDS011;59128;44.642;21.188;2023-05-20T06:32:26;1137.72;;;895.75;;
60665;SDS011;59128;44.642;21.188;2023-05-20T06:34:52;1102.05;;;893.85;;
60665;SDS011;59128;44.642;21.188;2023-05-20T06:37:18;1399.35;;;916.05;;
60665;SDS011;59128;44.642;21.188;2023-05-20T06:39:44;1521.72;;;905.35;;
60665;SDS011;59128;44.642;21.188;2023-05-20T06:42:11;1668.80;;;981.83;;
60665;SDS011;59128;44.642;21.188;2023-05-20T06:44:37;1753.15;;;999.90;;
60665;SDS011;59128;44.642;21.188;2023-05-20T06:47:03;1747.20;;;999.90;;
60665;SDS011;59128;44.642;21.188;2023-05-20T06:49:30;1805.88;;;999.90;;
60665;SDS011;59128;44.642;21.188;2023-05-20T06:51:56;1753.15;;;999.90;;
60665;SDS011;59128;44.642;21.188;2023-05-20T06:54:22;1719.00;;;999.90;;
60665;SDS011;59128;44.642;21.188;2023-05-20T06:56:48;1653.43;;;971.97;;
60665;SDS011;59128;44.642;21.188;2023-05-20T06:59:14;1614.30;;;988.40;;
60665;SDS011;59128;44.642;21.188;2023-05-20T07:01:40;1702.93;;;998.22;;
60665;SDS011;59128;44.642;21.188;2023-05-20T07:04:06;1644.95;;;998.75;;
60665;SDS011;59128;44.642;21.188;2023-05-20T07:06:32;1555.47;;;971.38;;
60665;SDS011;59128;44.642;21.188;2023-05-20T07:08:58;1587.10;;;966.85;;
60665;SDS011;59128;44.642;21.188;2023-05-20T07:11:24;1555.85;;;954.55;;
60665;SDS011;59128;44.642;21.188;2023-05-20T07:13:50;1405.63;;;920.83;;
60665;SDS011;59128;44.642;21.188;2023-05-20T07:16:17;1557.75;;;943.03;;
60665;SDS011;59128;44.642;21.188;2023-05-20T07:18:43;1579.57;;;943.28;;
60665;SDS011;59128;44.642;21.188;2023-05-20T07:21:09;1680.13;;;967.95;;
60665;SDS011;59128;44.642;21.188;2023-05-20T07:23:35;1782.68;;;968.92;;
60665;SDS011;59128;44.642;21.188;2023-05-20T07:26:01;1999.90;;;996.05;;
60665;SDS011;59128;44.642;21.188;2023-05-20T07:28:27;1999.90;;;999.90;;
60665;SDS011;59128;44.642;21.188;2023-05-20T07:30:53;1999.90;;;999.90;;
60665;SDS011;59128;44.642;21.188;2023-05-20T07:33:21;1999.90;;;999.90;;
60665;SDS011;59128;44.642;21.188;2023-05-20T07:35:47;1999.90;;;999.90;;
60665;SDS011;59128;44.642;21.188;2023-05-20T07:38:13;1999.90;;;999.90;;
60665;SDS011;59128;44.642;21.188;2023-05-20T07:40:39;1999.90;;;999.90;;
60665;SDS011;59128;44.642;21.188;2023-05-20T07:43:06;1999.90;;;999.90;;
60665;SDS011;59128;44.642;21.188;2023-05-20T07:45:35;1999.90;;;999.90;;
60665;SDS011;59128;44.642;21.188;2023-05-20T07:48:02;1999.90;;;999.90;;
60665;SDS011;59128;44.642;21.188;2023-05-20T07:50:28;1999.90;;;999.90;;
60665;SDS011;59128;44.642;21.188;2023-05-20T07:52:54;1999.90;;;999.90;;
60665;SDS011;59128;44.642;21.188;2023-05-20T07:55:20;1999.90;;;999.90;;
60665;SDS011;59128;44.642;21.188;2023-05-20T07:57:46;1999.90;;;999.90;;
60665;SDS011;59128;44.642;21.188;2023-05-20T08:00:12;1999.90;;;999.90;;
60665;SDS011;59128;44.642;21.188;2023-05-20T08:02:38;1999.90;;;999.90;;
60665;SDS011;59128;44.642;21.188;2023-05-20T08:05:04;1999.90;;;999.90;;
60665;SDS011;59128;44.642;21.188;2023-05-20T08:07:30;1999.90;;;999.90;;
60665;SDS011;59128;44.642;21.188;2023-05-20T08:09:56;1999.90;;;999.90;;
60665;SDS011;59128;44.642;21.188;2023-05-20T08:12:22;1999.90;;;999.90;;
60665;SDS011;59128;44.642;21.188;2023-05-20T08:14:48;1999.90;;;999.90;;
60665;SDS011;59128;44.642;21.188;2023-05-20T08:17:15;1999.90;;;999.90;;
60665;SDS011;59128;44.642;21.188;2023-05-20T08:19:41;1999.90;;;999.90;;
60665;SDS011;59128;44.642;21.188;2023-05-20T08:22:07;1999.90;;;999.03;;
60665;SDS011;59128;44.642;21.188;2023-05-20T08:24:33;1999.90;;;998.95;;
60665;SDS011;59128;44.642;21.188;2023-05-20T08:26:59;1999.90;;;982.58;;
60665;SDS011;59128;44.642;21.188;2023-05-20T08:29:25;1999.90;;;998.80;;
60665;SDS011;59128;44.642;21.188;2023-05-20T08:31:51;1999.90;;;913.75;;
60665;SDS011;59128;44.642;21.188;2023-05-20T08:34:17;1999.90;;;981.97;;
60665;SDS011;59128;44.642;21.188;2023-05-20T08:36:43;1999.90;;;928.20;;
60665;SDS011;59128;44.642;21.188;2023-05-20T08:39:10;1999.90;;;981.03;;
60665;SDS011;59128;44.642;21.188;2023-05-20T08:41:36;1999.90;;;999.90;;
60665;SDS011;59128;44.642;21.188;2023-05-20T08:44:03;1999.90;;;996.83;;
60665;SDS011;59128;44.642;21.188;2023-05-20T08:46:30;802.13;;;104.13;;
60665;SDS011;59128;44.642;21.188;2023-05-20T08:48:57;281.67;;;40.60;;
60665;SDS011;59128;44.642;21.188;2023-05-20T08:51:23;338.23;;;56.55;;
60665;SDS011;59128;44.642;21.188;2023-05-20T08:53:51;112.18;;;35.72;;
60665;SDS011;59128;44.642;21.188;2023-05-20T08:56:19;98.85;;;23.20;;
60665;SDS011;59128;44.642;21.188;2023-05-20T08:58:46;222.57;;;42.30;;
60665;SDS011;59128;44.642;21.188;2023-05-20T09:01:12;222.40;;;51.08;;
60665;SDS011;59128;44.642;21.188;2023-05-20T09:03:38;79.88;;;24.60;;
60665;SDS011;59128;44.642;21.188;2023-05-20T09:06:07;166.80;;;32.47;;
60665;SDS011;59128;44.642;21.188;2023-05-20T09:08:34;213.88;;;44.20;;
60665;SDS011;59128;44.642;21.188;2023-05-20T09:11:00;142.57;;;42.30;;
60665;SDS011;59128;44.642;21.188;2023-05-20T09:13:26;210.05;;;41.70;;
60665;SDS011;59128;44.642;21.188;2023-05-20T09:15:54;320.15;;;50.33;;
60665;SDS011;59128;44.642;21.188;2023-05-20T09:18:20;78.28;;;21.77;;
60665;SDS011;59128;44.642;21.188;2023-05-20T09:20:49;101.35;;;25.50;;
60665;SDS011;59128;44.642;21.188;2023-05-20T09:23:17;23.05;;;11.95;;
60665;SDS011;59128;44.642;21.188;2023-05-20T09:25:44;121.45;;;24.85;;
60665;SDS011;59128;44.642;21.188;2023-05-20T09:28:10;64.85;;;11.10;;
60665;SDS011;59128;44.642;21.188;2023-05-20T09:30:36;106.32;;;26.75;;
60665;SDS011;59128;44.642;21.188;2023-05-20T09:33:03;152.18;;;37.55;;
60665;SDS011;59128;44.642;21.188;2023-05-20T09:35:29;114.45;;;44.58;;
60665;SDS011;59128;44.642;21.188;2023-05-20T09:37:56;139.18;;;32.70;;
60665;SDS011;59128;44.642;21.188;2023-05-20T09:40:23;85.63;;;23.60;;
60665;SDS011;59128;44.642;21.188;2023-05-20T09:42:53;111.50;;;36.42;;
60665;SDS011;59128;44.642;21.188;2023-05-20T09:45:21;83.88;;;22.55;;
60665;SDS011;59128;44.642;21.188;2023-05-20T09:47:48;59.47;;;18.73;;
60665;SDS011;59128;44.642;21.188;2023-05-20T09:50:15;29.92;;;14.75;;
60665;SDS011;59128;44.642;21.188;2023-05-20T09:52:41;29.13;;;15.32;;
60665;SDS011;59128;44.642;21.188;2023-05-20T09:55:08;44.90;;;17.67;;
60665;SDS011;59128;44.642;21.188;2023-05-20T09:57:36;27.33;;;11.32;;
60665;SDS011;59128;44.642;21.188;2023-05-20T10:00:02;22.40;;;13.75;;
60665;SDS011;59128;44.642;21.188;2023-05-20T10:02:29;27.65;;;15.90;;
60665;SDS011;59128;44.642;21.188;2023-05-20T10:04:56;26.30;;;18.48;;
60665;SDS011;59128;44.642;21.188;2023-05-20T10:07:40;34.22;;;14.90;;
60665;SDS011;59128;44.642;21.188;2023-05-20T10:15:27;16.75;;;12.57;;
60665;SDS011;59128;44.642;21.188;2023-05-20T10:20:46;25.98;;;14.32;;
60665;SDS011;59128;44.642;21.188;2023-05-20T10:23:19;130.50;;;46.75;;
60665;SDS011;59128;44.642;21.188;2023-05-20T10:25:50;254.10;;;65.75;;
60665;SDS011;59128;44.642;21.188;2023-05-20T10:28:23;242.85;;;71.45;;
60665;SDS011;59128;44.642;21.188;2023-05-20T10:30:49;194.40;;;67.35;;
60665;SDS011;59128;44.642;21.188;2023-05-20T10:33:16;206.48;;;57.78;;
60665;SDS011;59128;44.642;21.188;2023-05-20T10:35:49;317.17;;;87.80;;
60665;SDS011;59128;44.642;21.188;2023-05-20T10:38:16;200.70;;;52.92;;
60665;SDS011;59128;44.642;21.188;2023-05-20T10:40:42;285.85;;;84.82;;
60665;SDS011;59128;44.642;21.188;2023-05-20T10:43:12;127.75;;;38.05;;
60665;SDS011;59128;44.642;21.188;2023-05-20T10:45:51;254.50;;;73.97;;
60665;SDS011;59128;44.642;21.188;2023-05-20T10:48:19;333.90;;;108.43;;
60665;SDS011;59128;44.642;21.188;2023-05-20T10:50:45;245.63;;;77.28;;
60665;SDS011;59128;44.642;21.188;2023-05-20T10:53:12;273.02;;;74.95;;
60665;SDS011;59128;44.642;21.188;2023-05-20T10:55:39;250.90;;;84.60;;
60665;SDS011;59128;44.642;21.188;2023-05-20T10:58:06;192.93;;;57.95;;
60665;SDS011;59128;44.642;21.188;2023-05-20T11:00:35;197.55;;;68.60;;
60665;SDS011;59128;44.642;21.188;2023-05-20T11:03:02;169.05;;;63.03;;
60665;SDS011;59128;44.642;21.188;2023-05-20T11:05:29;215.52;;;78.00;;
60665;SDS011;59128;44.642;21.188;2023-05-20T11:08:02;254.65;;;82.68;;
60665;SDS011;59128;44.642;21.188;2023-05-20T11:10:28;222.20;;;73.45;;
60665;SDS011;59128;44.642;21.188;2023-05-20T11:12:55;200.38;;;57.60;;
60665;SDS011;59128;44.642;21.188;2023-05-20T11:15:22;199.25;;;61.05;;
60665;SDS011;59128;44.642;21.188;2023-05-20T11:17:55;583.65;;;158.23;;
60665;SDS011;59128;44.642;21.188;2023-05-20T11:20:21;197.35;;;68.45;;
60665;SDS011;59128;44.642;21.188;2023-05-20T11:22:51;437.55;;;126.38;;
60665;SDS011;59128;44.642;21.188;2023-05-20T11:25:18;117.15;;;44.28;;
60665;SDS011;59128;44.642;21.188;2023-05-20T11:27:44;348.70;;;121.88;;
60665;SDS011;59128;44.642;21.188;2023-05-20T11:30:10;149.10;;;29.50;;
60665;SDS011;59128;44.642;21.188;2023-05-20T11:32:41;8.20;;;6.05;;
60665;SDS011;59128;44.642;21.188;2023-05-20T11:35:07;5.72;;;5.07;;
60665;SDS011;59128;44.642;21.188;2023-05-20T11:37:34;5.60;;;4.93;;
60665;SDS011;59128;44.642;21.188;2023-05-20T11:40:07;95.70;;;38.75;;
60665;SDS011;59128;44.642;21.188;2023-05-20T11:42:34;54.13;;;30.75;;
60665;SDS011;59128;44.642;21.188;2023-05-20T11:45:00;6.40;;;5.57;;
60665;SDS011;59128;44.642;21.188;2023-05-20T11:47:26;5.80;;;4.93;;
60665;SDS011;59128;44.642;21.188;2023-05-20T11:49:52;5.85;;;5.25;;
60665;SDS011;59128;44.642;21.188;2023-05-20T11:52:18;7.97;;;5.30;;
60665;SDS011;59128;44.642;21.188;2023-05-20T11:54:51;7.70;;;5.50;;
60665;SDS011;59128;44.642;21.188;2023-05-20T11:57:18;124.07;;;22.70;;
60665;SDS011;59128;44.642;21.188;2023-05-20T11:59:45;4.40;;;4.00;;
60665;SDS011;59128;44.642;21.188;2023-05-20T12:02:11;6.65;;;4.85;;
60665;SDS011;59128;44.642;21.188;2023-05-20T12:04:37;8.23;;;5.40;;
60665;SDS011;59128;44.642;21.188;2023-05-20T12:07:04;5.28;;;4.65;;
60665;SDS011;59128;44.642;21.188;2023-05-20T12:09:33;4.70;;;4.10;;
60665;SDS011;59128;44.642;21.188;2023-05-20T12:11:59;5.82;;;4.57;;
60665;SDS011;59128;44.642;21.188;2023-05-20T12:14:26;4.70;;;4.22;;
60665;SDS011;59128;44.642;21.188;2023-05-20T12:16:52;5.95;;;4.05;;
60665;SDS011;59128;44.642;21.188;2023-05-20T12:19:18;8.77;;;4.47;;
60665;SDS011;59128;44.642;21.188;2023-05-20T12:21:44;4.90;;;4.43;;
60665;SDS011;59128;44.642;21.188;2023-05-20T12:24:11;7.05;;;4.75;;
60665;SDS011;59128;44.642;21.188;2023-05-20T12:26:37;5.60;;;4.53;;
60665;SDS011;59128;44.642;21.188;2023-05-20T12:29:04;6.10;;;4.68;;
60665;SDS011;59128;44.642;21.188;2023-05-20T12:31:31;7.13;;;4.75;;
60665;SDS011;59128;44.642;21.188;2023-05-20T12:33:57;6.07;;;4.60;;
60665;SDS011;59128;44.642;21.188;2023-05-20T12:36:23;7.47;;;5.95;;
60665;SDS011;59128;44.642;21.188;2023-05-20T12:38:49;7.07;;;4.70;;
60665;SDS011;59128;44.642;21.188;2023-05-20T12:41:15;5.82;;;4.28;;
60665;SDS011;59128;44.642;21.188;2023-05-20T12:43:41;6.63;;;4.32;;
60665;SDS011;59128;44.642;21.188;2023-05-20T12:46:07;7.75;;;4.28;;
60665;SDS011;59128;44.642;21.188;2023-05-20T12:48:33;5.47;;;4.47;;
60665;SDS011;59128;44.642;21.188;2023-05-20T12:51:00;6.88;;;5.10;;
60665;SDS011;59128;44.642;21.188;2023-05-20T12:53:26;6.80;;;5.30;;
60665;SDS011;59128;44.642;21.188;2023-05-20T12:55:52;5.15;;;4.25;;
60665;SDS011;59128;44.642;21.188;2023-05-20T12:58:18;4.75;;;4.20;;
60665;SDS011;59128;44.642;21.188;2023-05-20T13:00:44;6.05;;;4.85;;
60665;SDS011;59128;44.642;21.188;2023-05-20T13:03:10;4.82;;;4.30;;
60665;SDS011;59128;44.642;21.188;2023-05-20T13:05:36;5.55;;;4.38;;
60665;SDS011;59128;44.642;21.188;2023-05-20T13:08:02;4.57;;;4.18;;
60665;SDS011;59128;44.642;21.188;2023-05-20T13:10:29;6.55;;;4.57;;
60665;SDS011;59128;44.642;21.188;2023-05-20T13:12:55;5.85;;;4.75;;
60665;SDS011;59128;44.642;21.188;2023-05-20T13:15:21;6.80;;;4.55;;
60665;SDS011;59128;44.642;21.188;2023-05-20T13:17:47;6.20;;;5.55;;
60665;SDS011;59128;44.642;21.188;2023-05-20T13:20:13;7.30;;;5.00;;
60665;SDS011;59128;44.642;21.188;2023-05-20T13:22:39;6.68;;;4.82;;
60665;SDS011;59128;44.642;21.188;2023-05-20T13:25:05;6.82;;;5.13;;
60665;SDS011;59128;44.642;21.188;2023-05-20T13:27:31;6.25;;;5.10;;
60665;SDS011;59128;44.642;21.188;2023-05-20T13:29:57;9.15;;;5.85;;
60665;SDS011;59128;44.642;21.188;2023-05-20T13:32:25;7.00;;;5.30;;
60665;SDS011;59128;44.642;21.188;2023-05-20T13:34:51;8.40;;;5.32;;
60665;SDS011;59128;44.642;21.188;2023-05-20T13:37:17;6.95;;;5.43;;
60665;SDS011;59128;44.642;21.188;2023-05-20T13:39:43;6.60;;;5.00;;
60665;SDS011;59128;44.642;21.188;2023-05-20T13:42:09;10.68;;;7.82;;
60665;SDS011;59128;44.642;21.188;2023-05-20T13:44:35;8.07;;;5.63;;
60665;SDS011;59128;44.642;21.188;2023-05-20T13:47:01;6.05;;;5.10;;
60665;SDS011;59128;44.642;21.188;2023-05-20T13:49:27;11.38;;;7.20;;
60665;SDS011;59128;44.642;21.188;2023-05-20T13:51:53;7.85;;;5.40;;
60665;SDS011;59128;44.642;21.188;2023-05-20T13:54:20;7.03;;;5.25;;
60665;SDS011;59128;44.642;21.188;2023-05-20T13:56:46;7.82;;;5.47;;
60665;SDS011;59128;44.642;21.188;2023-05-20T13:59:12;6.63;;;5.63;;
60665;SDS011;59128;44.642;21.188;2023-05-20T14:01:38;7.50;;;5.72;;